createdAt,value
2018-07-24T00:02:09.606Z,7.40
2018-07-24T00:07:14.438Z,8.20
2018-07-24T00:12:19.192Z,8.13
2018-07-24T00:17:23.929Z,7.83
2018-07-24T00:22:28.731Z,8.27
2018-07-24T00:27:33.399Z,8.07
2018-07-24T00:32:38.204Z,7.90
2018-07-24T00:37:42.988Z,8.33
2018-07-24T00:42:47.672Z,9.77
2018-07-24T00:47:52.646Z,9.10
2018-07-24T00:52:57.394Z,8.83
2018-07-24T00:58:02.161Z,8.17
2018-07-24T01:03:07.073Z,10.00
2018-07-24T01:08:11.820Z,9.37
2018-07-24T01:13:16.450Z,10.00
2018-07-24T01:18:21.237Z,8.87
2018-07-24T01:23:26.017Z,10.53
2018-07-24T01:28:30.773Z,9.90
2018-07-24T01:33:35.517Z,10.40
2018-07-24T01:38:40.311Z,9.17
2018-07-24T01:43:45.130Z,9.90
2018-07-24T01:48:49.762Z,9.90
2018-07-24T01:53:54.513Z,10.23
2018-07-24T01:58:59.235Z,9.00
2018-07-24T02:04:03.974Z,8.17
2018-07-24T02:09:10.611Z,7.23
2018-07-24T02:14:15.394Z,7.40
2018-07-24T02:19:20.122Z,6.50
2018-07-24T02:24:24.947Z,7.23
2018-07-24T02:29:29.664Z,8.10
2018-07-24T02:34:34.457Z,8.63
2018-07-24T02:39:39.116Z,9.07
2018-07-24T02:44:43.891Z,9.07
2018-07-24T02:49:48.504Z,9.07
2018-07-24T02:54:53.262Z,10.00
2018-07-24T02:59:58.108Z,9.10
2018-07-24T03:05:02.900Z,10.23
2018-07-24T03:10:07.664Z,9.63
2018-07-24T03:15:12.357Z,10.77
2018-07-24T03:20:17.056Z,8.47
2018-07-24T03:25:22.024Z,8.90
2018-07-24T03:30:26.817Z,8.30
2018-07-24T03:35:31.657Z,8.50
2018-07-24T03:40:36.358Z,7.17
2018-07-24T03:45:41.165Z,8.07
2018-07-24T03:50:45.860Z,7.90
2018-07-24T03:55:50.766Z,8.87
2018-07-24T04:00:55.498Z,9.60
2018-07-24T04:06:00.340Z,10.73
2018-07-24T04:11:05.153Z,9.13
2018-07-24T04:16:10.022Z,7.30
2018-07-24T04:21:15.424Z,7.93
2018-07-24T04:26:20.145Z,6.83
2018-07-24T04:31:24.882Z,6.23
2018-07-24T04:36:29.766Z,6.87
2018-07-24T04:41:34.472Z,7.43
2018-07-24T04:46:39.237Z,7.00
2018-07-24T04:51:43.851Z,5.53
2018-07-24T04:56:48.558Z,5.13
2018-07-24T05:01:53.430Z,5.40
2018-07-24T05:06:58.219Z,5.90
2018-07-24T05:12:03.002Z,6.20
2018-07-24T05:17:07.716Z,6.00
2018-07-24T05:22:12.429Z,6.30
2018-07-24T05:27:17.138Z,6.20
2018-07-24T05:32:21.954Z,5.73
2018-07-24T05:37:26.772Z,6.70
2018-07-24T05:42:31.492Z,7.03
2018-07-24T05:47:36.170Z,6.23
2018-07-24T05:52:40.898Z,7.60
2018-07-24T05:57:45.611Z,7.93
2018-07-24T06:02:50.443Z,7.30
2018-07-24T06:07:55.154Z,6.50
2018-07-24T06:13:00.021Z,6.30
2018-07-24T06:18:04.697Z,6.80
2018-07-24T06:23:09.412Z,6.93
2018-07-24T06:28:14.107Z,5.67
2018-07-24T06:33:18.952Z,6.17
2018-07-24T06:38:23.613Z,6.27
2018-07-24T06:43:28.438Z,5.63
2018-07-24T06:48:33.243Z,5.90
2018-07-24T06:53:38.023Z,5.90
2018-07-24T06:58:42.804Z,6.03
2018-07-24T07:03:47.748Z,5.70
2018-07-24T07:08:54.920Z,6.17
2018-07-24T07:13:59.666Z,6.13
2018-07-24T07:19:04.432Z,6.00
2018-07-24T07:24:09.168Z,6.30
2018-07-24T07:29:13.952Z,6.00
2018-07-24T07:34:18.588Z,6.00
2018-07-24T07:39:23.272Z,5.97
2018-07-24T07:44:28.038Z,6.33
2018-07-24T07:49:32.879Z,5.53
2018-07-24T07:54:37.592Z,5.27
2018-07-24T07:59:42.274Z,5.33
2018-07-24T08:04:46.929Z,6.20
2018-07-24T08:09:51.646Z,5.83
2018-07-24T08:14:56.650Z,6.20
2018-07-24T08:20:01.571Z,5.67
2018-07-24T08:25:06.380Z,5.87
2018-07-24T08:30:11.145Z,5.90
2018-07-24T08:35:15.861Z,5.60
2018-07-24T08:40:20.569Z,5.37
2018-07-24T08:45:25.113Z,5.90
2018-07-24T08:50:29.791Z,6.17
2018-07-24T08:55:34.984Z,5.83
2018-07-24T09:00:39.267Z,5.20
2018-07-24T09:05:44.114Z,5.67
2018-07-24T09:10:48.953Z,6.17
2018-07-24T09:15:53.664Z,5.67
2018-07-24T09:20:58.446Z,5.83
2018-07-24T09:26:03.091Z,6.10
2018-07-24T09:31:07.929Z,5.30
2018-07-24T09:36:12.679Z,5.80
2018-07-24T09:41:17.683Z,5.07
2018-07-24T09:46:22.353Z,5.70
2018-07-24T09:51:27.139Z,5.13
2018-07-24T09:56:31.945Z,5.20
2018-07-24T10:01:36.661Z,4.63
2018-07-24T10:06:41.391Z,5.10
2018-07-24T10:11:46.155Z,5.17
2018-07-24T10:16:50.949Z,4.83
2018-07-24T10:21:55.652Z,4.17
2018-07-24T10:27:00.491Z,4.47
2018-07-24T10:32:05.244Z,4.53
2018-07-24T10:37:21.305Z,4.60
2018-07-24T10:42:26.076Z,4.20
2018-07-24T10:47:30.766Z,4.03
2018-07-24T10:52:35.458Z,4.40
2018-07-24T10:57:40.287Z,4.30
2018-07-24T11:02:45.047Z,4.07
2018-07-24T11:07:49.737Z,4.30
2018-07-24T11:12:54.509Z,4.40
2018-07-24T11:17:59.695Z,4.30
2018-07-24T11:23:04.560Z,4.60
2018-07-24T11:28:09.270Z,4.37
2018-07-24T11:33:14.000Z,4.17
2018-07-24T11:38:18.755Z,4.07
2018-07-24T11:43:23.629Z,4.63
2018-07-24T11:48:28.385Z,4.17
2018-07-24T11:53:33.357Z,4.20
2018-07-24T11:58:38.247Z,3.80
2018-07-24T12:03:42.888Z,3.83
2018-07-24T12:08:47.641Z,4.00
2018-07-24T12:13:52.315Z,3.97
2018-07-24T12:18:56.995Z,4.63
2018-07-24T12:24:01.979Z,4.50
2018-07-24T12:29:06.763Z,4.80
2018-07-24T12:34:11.507Z,4.43
2018-07-24T12:39:16.320Z,4.43
2018-07-24T12:44:20.955Z,4.30
2018-07-24T12:49:25.781Z,4.43
2018-07-24T12:54:30.692Z,4.60
2018-07-24T12:59:36.335Z,4.23
2018-07-24T13:04:41.060Z,4.63
2018-07-24T13:09:45.763Z,3.80
2018-07-24T13:14:50.428Z,4.80
2018-07-24T13:19:55.310Z,4.77
2018-07-24T13:25:00.072Z,4.33
2018-07-24T13:30:05.268Z,4.17
2018-07-24T13:35:10.020Z,4.08
2018-07-24T13:40:14.903Z,3.72
2018-07-24T13:45:19.650Z,3.93
2018-07-24T13:50:24.403Z,3.60
2018-07-24T13:55:29.832Z,3.90
2018-07-24T14:00:34.560Z,3.55
2018-07-24T14:05:39.485Z,4.35
2018-07-24T14:10:44.184Z,4.37
2018-07-24T14:15:48.943Z,3.70
2018-07-24T14:20:53.713Z,3.60
2018-07-24T14:25:58.532Z,4.05
2018-07-24T14:31:03.370Z,3.80
2018-07-24T14:36:08.207Z,4.57
2018-07-24T14:41:12.889Z,4.13
2018-07-24T14:46:17.761Z,3.83
2018-07-24T14:51:22.443Z,3.93
2018-07-24T14:56:27.253Z,3.73
2018-07-24T15:01:32.023Z,3.80
2018-07-24T15:06:36.748Z,3.70
2018-07-24T15:11:41.532Z,3.80
2018-07-24T15:16:46.265Z,3.40
2018-07-24T15:21:50.976Z,4.07
2018-07-24T15:26:55.919Z,4.20
2018-07-24T15:32:00.954Z,3.90
2018-07-24T15:37:05.979Z,3.80
2018-07-24T15:42:10.851Z,3.90
2018-07-24T15:47:15.517Z,4.10
2018-07-24T15:52:20.312Z,3.50
2018-07-24T15:57:25.129Z,3.47
2018-07-24T16:02:29.993Z,3.60
2018-07-24T16:07:34.699Z,3.27
2018-07-24T16:12:39.416Z,3.90
2018-07-24T16:17:44.383Z,3.57
2018-07-24T16:22:49.245Z,3.40
2018-07-24T16:27:54.006Z,3.00
2018-07-24T16:32:58.894Z,3.20
2018-07-24T16:38:03.679Z,3.23
2018-07-24T16:43:08.555Z,3.23
2018-07-24T16:48:13.275Z,3.33
2018-07-24T16:53:18.140Z,3.10
2018-07-24T16:58:22.884Z,2.87
2018-07-24T17:03:27.683Z,3.00
2018-07-24T17:08:32.430Z,3.17
2018-07-24T17:13:37.198Z,3.00
2018-07-24T17:18:42.116Z,3.17
2018-07-24T17:23:46.810Z,3.27
2018-07-24T17:28:51.585Z,2.90
2018-07-24T17:33:56.434Z,2.90
2018-07-24T17:39:01.260Z,3.30
2018-07-24T17:44:06.282Z,3.37
2018-07-24T17:49:11.119Z,3.47
2018-07-24T17:54:15.803Z,3.60
2018-07-24T17:59:20.868Z,3.60
2018-07-24T18:04:25.711Z,4.10
2018-07-24T18:09:30.504Z,3.70
2018-07-24T18:14:35.355Z,3.43
2018-07-24T18:19:40.949Z,3.67
2018-07-24T18:24:46.211Z,4.23
2018-07-24T18:29:51.037Z,3.67
2018-07-24T18:34:56.441Z,4.10
2018-07-24T18:40:01.615Z,3.80
2018-07-24T18:45:06.734Z,3.77
2018-07-24T18:50:24.648Z,4.20
2018-07-24T18:55:29.643Z,3.77
2018-07-24T19:00:38.757Z,4.27
2018-07-24T19:05:43.845Z,4.27
2018-07-24T19:10:48.834Z,4.17
2018-07-24T19:15:53.948Z,4.53
2018-07-24T19:21:00.208Z,4.27
2018-07-24T19:26:05.474Z,4.57
2018-07-24T19:31:10.522Z,4.60
2018-07-24T19:36:15.470Z,5.07
2018-07-24T19:41:20.504Z,4.80
2018-07-24T19:46:26.154Z,4.70
2018-07-24T19:51:31.155Z,4.97
2018-07-24T19:56:37.106Z,4.30
2018-07-24T20:01:42.236Z,4.80
2018-07-24T20:06:47.289Z,4.30
2018-07-24T20:11:52.465Z,4.50
2018-07-24T20:16:57.587Z,4.60
2018-07-24T20:22:02.607Z,4.80
2018-07-24T20:27:07.729Z,4.97
2018-07-24T20:32:12.650Z,4.37
2018-07-24T20:37:17.523Z,4.73
2018-07-24T20:42:22.291Z,4.43
2018-07-24T20:47:27.087Z,4.70
2018-07-24T20:52:31.968Z,4.80
2018-07-24T20:57:36.903Z,4.80
2018-07-24T21:02:41.684Z,4.73
2018-07-24T21:07:46.570Z,4.97
2018-07-24T21:12:51.600Z,5.43
2018-07-24T21:17:56.390Z,4.70
2018-07-24T21:23:01.442Z,5.07
2018-07-24T21:28:06.466Z,4.47
2018-07-24T21:33:11.214Z,4.90
2018-07-24T21:38:16.095Z,4.97
2018-07-24T21:43:20.859Z,5.07
2018-07-24T21:48:25.565Z,5.00
2018-07-24T21:53:30.440Z,5.20
2018-07-24T21:58:35.132Z,4.70
2018-07-24T22:03:39.973Z,5.07
2018-07-24T22:08:44.890Z,5.20
2018-07-24T22:13:49.643Z,5.30
2018-07-24T22:18:54.332Z,5.33
2018-07-24T22:23:59.144Z,5.20
2018-07-24T22:29:04.011Z,5.13
2018-07-24T22:34:14.701Z,5.30
2018-07-24T22:39:20.538Z,5.43
2018-07-24T22:44:34.616Z,5.47
2018-07-24T22:49:41.156Z,6.17
2018-07-24T22:54:45.914Z,5.63
2018-07-24T22:59:50.695Z,5.93
2018-07-24T23:04:55.449Z,5.97
2018-07-24T23:10:00.371Z,5.23
2018-07-24T23:15:06.252Z,4.90
2018-07-24T23:20:11.087Z,5.33
2018-07-24T23:25:15.990Z,5.77
2018-07-24T23:30:20.802Z,5.87
2018-07-24T23:35:25.602Z,5.63
2018-07-24T23:40:30.286Z,5.40
2018-07-24T23:45:35.056Z,5.57
2018-07-24T23:50:39.800Z,5.23
2018-07-24T23:55:44.552Z,5.77
